^^
Station Historical Data
Daily Summary for May 25, 2017 Units:  Metric    English   Both
« Previous Day
Next Day »
Daily Weekly Monthly Yearly Custom
  High: Low: Average:
Temperature: 26.9 °C 9.8 °C 15.8 °C
Dew Point: 2.1 °C -1.2 °C 0.4 °C
Humidity: 51% 18% 37%
Wind Speed: 19.5km/h 0km/h 1.8km/h
Wind Gust: 20.9km/h - -
Wind- - West
Pressure: 1016.1 hPa 1011.4 hPa -
Precipitation: 0 mm    
Historical Graphs
 
 
Tabular Data for May 25, 2017
Time Temperature Dew Point Pressure Wind Wind Speed Wind Gust Humidity Rainfall Rate (Hourly) solar Conditions
00:04 12.6 °C -0.6 °C 1015.1 hPa Calm     40% 0 mm 0.0 W/m2
00:09 12.6 °C -0.6 °C 1015.1 hPa Calm     40% 0 mm 0.0 W/m2
00:19 12.5 °C -0.7 °C 1015.1 hPa Calm     40% 0 mm 0.0 W/m2
00:25 12.4 °C -1.2 °C 1014.8 hPa Calm     39% 0 mm 0.0 W/m2
00:32 12.3 °C -0.6 °C 1014.8 hPa Calm     41% 0 mm 0.0 W/m2
00:38 12.3 °C -0.6 °C 1014.8 hPa Calm     41% 0 mm 0.0 W/m2
00:50 12.4 °C -0.5 °C 1015.1 hPa Calm     41% 0 mm 0.0 W/m2
01:00 12.1 °C -0.8 °C 1015.1 hPa Calm     41% 0 mm 0.0 W/m2
01:11 11.8 °C -0.7 °C 1015.1 hPa Calm     42% 0 mm 0.0 W/m2
01:26 11.6 °C -0.6 °C 1015.1 hPa Calm     43% 0 mm 0.0 W/m2
01:42 11.3 °C -0.8 °C 1015.1 hPa Calm     43% 0 mm 0.0 W/m2
01:55 11.3 °C -0.5 °C 1015.1 hPa Calm     44% 0 mm 0.0 W/m2
02:04 11.3 °C -0.8 °C 1015.1 hPa Calm     43% 0 mm 0.0 W/m2
02:13 11.2 °C -0.6 °C 1015.1 hPa Calm     44% 0 mm 0.0 W/m2
02:18 11.1 °C -1 °C 1015.1 hPa Calm     43% 0 mm 0.0 W/m2
02:23 10.9 °C -0.9 °C 1014.8 hPa Calm     44% 0 mm 0.0 W/m2
02:29 10.8 °C -1 °C 1014.8 hPa Calm     44% 0 mm 0.0 W/m2
02:34 10.6 °C -0.8 °C 1015.1 hPa Calm     45% 0 mm 0.0 W/m2
02:44 10.6 °C -0.8 °C 1014.8 hPa Calm     45% 0 mm 0.0 W/m2
02:49 10.7 °C -0.8 °C 1014.8 hPa Calm     45% 0 mm 0.0 W/m2
02:54 10.7 °C -0.8 °C 1014.8 hPa Calm     45% 0 mm 0.0 W/m2
03:04 10.5 °C -0.9 °C 1014.8 hPa Calm     45% 0 mm 0.0 W/m2
03:10 10.5 °C -0.6 °C 1014.8 hPa Calm     46% 0 mm 0.0 W/m2
03:15 10.6 °C -0.5 °C 1014.8 hPa Calm     46% 0 mm 0.0 W/m2
03:20 10.7 °C -0.2 °C 1014.8 hPa Calm     47% 0 mm 0.0 W/m2
03:25 10.8 °C -0.1 °C 1014.8 hPa Calm     47% 0 mm 0.0 W/m2
03:31 11.2 °C 0.6 °C 1014.8 hPa Calm     48% 0 mm 0.0 W/m2
03:36 11.6 °C 0.1 °C 1014.8 hPa Calm     45% 0 mm 0.0 W/m2
03:41 11.6 °C 0.1 °C 1014.8 hPa Calm     45% 0 mm 0.0 W/m2
03:46 11.5 °C 0 °C 1014.8 hPa Calm     45% 0 mm 0.0 W/m2
03:51 11.3 °C 0.1 °C 1014.8 hPa Calm     46% 0 mm 0.0 W/m2
03:57 11.3 °C 0.1 °C 1014.8 hPa Calm     46% 0 mm 0.0 W/m2
04:02 11.5 °C 0.3 °C 1014.8 hPa Calm     46% 0 mm 0.0 W/m2
04:08 11.9 °C 0.6 °C 1014.4 hPa Calm     46% 0 mm 0.0 W/m2
04:13 12.2 °C 0.6 °C 1014.4 hPa Calm     45% 0 mm 0.0 W/m2
04:18 12.2 °C 0.6 °C 1014.4 hPa Calm     45% 0 mm 0.0 W/m2
04:23 12.3 °C 0.4 °C 1014.4 hPa Calm     44% 0 mm 0.0 W/m2
04:28 12.3 °C 0.4 °C 1014.4 hPa Calm     44% 0 mm 0.0 W/m2
04:34 12.1 °C 0.2 °C 1014.8 hPa Calm     44% 0 mm 0.0 W/m2
04:39 11.8 °C 0.2 °C 1014.8 hPa Calm     45% 0 mm 0.0 W/m2
04:44 12 °C 0.7 °C 1014.8 hPa Calm     46% 0 mm 0.0 W/m2
04:49 12.2 °C 0.3 °C 1014.4 hPa Calm     44% 0 mm 0.0 W/m2
04:54 12.1 °C -0.1 °C 1014.4 hPa Calm     43% 0 mm 0.0 W/m2
05:00 11.9 °C 0.3 °C 1014.8 hPa Calm     45% 0 mm 0.0 W/m2
05:05 11.8 °C 0.6 °C 1014.8 hPa Calm     46% 0 mm 0.0 W/m2
05:10 12.2 °C 0.3 °C 1014.8 hPa Calm     44% 0 mm 0.0 W/m2
05:15 12 °C -0.2 °C 1014.8 hPa Calm     43% 0 mm 0.0 W/m2
05:20 11.4 °C -0.4 °C 1014.8 hPa Calm     44% 0 mm 0.0 W/m2
05:25 11.2 °C -0.3 °C 1014.8 hPa Calm     45% 0 mm 0.0 W/m2
05:35 10.9 °C -0.6 °C 1014.8 hPa Calm     45% 0 mm 0.0 W/m2
05:41 10.4 °C -0.4 °C 1015.1 hPa Calm     47% 0 mm 0.0 W/m2
05:46 10.4 °C -0.4 °C 1015.1 hPa Calm     47% 0 mm 0.0 W/m2
05:56 10.5 °C -0.1 °C 1014.8 hPa Calm     48% 0 mm 0.0 W/m2
06:01 10.6 °C -0.2 °C 1015.1 hPa Calm     47% 0 mm 0.0 W/m2
06:06 10.4 °C -0.4 °C 1015.1 hPa Calm     47% 0 mm 0.0 W/m2
06:11 10.2 °C -0.3 °C 1015.1 hPa Calm     48% 0 mm 0.0 W/m2
06:16 9.9 °C -0.6 °C 1015.1 hPa Calm     48% 0 mm 0.0 W/m2
06:22 9.8 °C -0.4 °C 1015.1 hPa Calm     49% 0 mm 0.0 W/m2
06:27 9.8 °C 0.1 °C 1015.1 hPa Calm     51% 0 mm 0.0 W/m2
06:32 10.3 °C 0 °C 1015.1 hPa Calm     49% 0 mm 5.0 W/m2
06:43 10.6 °C -0.2 °C 1015.1 hPa Calm     47% 0 mm 7.0 W/m2
06:58 10.3 °C 0 °C 1015.1 hPa Calm     49% 0 mm 18.0 W/m2
07:03 10.3 °C -0.2 °C 1015.1 hPa Calm     48% 0 mm 19.0 W/m2
07:13 10.6 °C 0 °C 1015.1 hPa Calm     48% 0 mm 25.0 W/m2
07:28 11.9 °C 0.6 °C 1015.1 hPa Calm     46% 0 mm 109.0 W/m2
07:49 13.4 °C 0.7 °C 1015.5 hPa Calm     42% 0 mm 174.0 W/m2
08:04 14.8 °C 1.3 °C 1015.8 hPa Calm     40% 0 mm 207.0 W/m2
08:14 15.7 °C 1.4 °C 1015.8 hPa Calm     38% 0 mm 246.0 W/m2
08:30 16.4 °C 1.3 °C 1015.8 hPa Calm     36% 0 mm 197.0 W/m2
08:44 16.8 °C 1.6 °C 1016.1 hPa Calm     36% 0 mm 241.0 W/m2
08:51 17.1 °C 1.9 °C 1016.1 hPa Calm     36% 0 mm 244.0 W/m2
11:59 23.8 °C 1.4 °C 1014.1 hPa Calm   3.2 km/h 23% 0 mm 388.0 W/m2
12:19 24.3 °C 1.2 °C 1013.4 hPa Calm   8 km/h 22% 0 mm 577.0 W/m2
12:29 24.4 °C 1.3 °C 1013.4 hPa West 1.4 km/h 12.9 km/h 22% 0 mm 526.0 W/m2
12:34 24.3 °C 1.2 °C 1013.4 hPa West 7.9 km/h 14.5 km/h 22% 0 mm 519.0 W/m2
12:44 24.7 °C 1.6 °C 1013.1 hPa West 11.1 km/h 11.3 km/h 22% 0 mm 547.0 W/m2
12:49 24.8 °C 1.6 °C 1013.1 hPa Calm   11.3 km/h 22% 0 mm 571.0 W/m2
12:54 24.9 °C 1.7 °C 1013.1 hPa Calm     22% 0 mm 570.0 W/m2
13:06 25.3 °C 1.4 °C 1012.8 hPa West 7.9 km/h 11.3 km/h 21% 0 mm 617.0 W/m2
13:09 25.2 °C 1.3 °C 1012.8 hPa West 7.9 km/h 16.1 km/h 21% 0 mm 559.0 W/m2
13:15 25.2 °C 1.3 °C 1012.4 hPa West 3.2 km/h 12.9 km/h 21% 0 mm 494.0 W/m2
13:25 25.3 °C 1.4 °C 1012.4 hPa West 6.4 km/h 11.3 km/h 21% 0 mm 431.0 W/m2
13:35 25.4 °C 1.5 °C 1012.4 hPa Calm     21% 0 mm 387.0 W/m2
13:40 25.5 °C 1.6 °C 1012.4 hPa Calm     21% 0 mm 478.0 W/m2
13:48 25.7 °C 1.7 °C 1012.1 hPa Calm   6.4 km/h 21% 0 mm 461.0 W/m2
13:55 25.7 °C 1.7 °C 1012.1 hPa West 1.4 km/h 4.8 km/h 21% 0 mm 432.0 W/m2
14:15 26.1 °C 1.4 °C 1011.7 hPa West 6.4 km/h 8 km/h 20% 0 mm 396.0 W/m2
14:25 26.1 °C 1.4 °C 1011.7 hPa West 11.1 km/h 12.9 km/h 20% 0 mm 334.0 W/m2
14:46 26.2 °C 1.5 °C 1011.7 hPa Calm     20% 0 mm 316.0 W/m2
15:01 26.5 °C 1 °C 1011.7 hPa Calm   8 km/h 19% 0 mm 390.0 W/m2
15:10 26.7 °C 1.2 °C 1011.4 hPa Calm   4.8 km/h 19% 0 mm 297.0 W/m2
15:21 26.9 °C 1.3 °C 1011.4 hPa West 7.9 km/h 11.3 km/h 19% 0 mm 283.0 W/m2
15:26 26.9 °C 0.6 °C 1011.4 hPa West 6.4 km/h 11.3 km/h 18% 0 mm 223.0 W/m2
15:42 26.1 °C 1.4 °C 1011.4 hPa West 13 km/h 20.9 km/h 20% 0 mm 207.0 W/m2
15:57 25.3 °C 1.4 °C 1011.4 hPa WSW 7.9 km/h 16.1 km/h 21% 0 mm 95.0 W/m2
16:12 25.1 °C 1.2 °C 1011.7 hPa WSW 19.5 km/h 19.5 km/h 21% 0 mm 98.0 W/m2
16:27 24.6 °C 0.8 °C 1011.7 hPa WSW 16.3 km/h 16.3 km/h 21% 0 mm 49.0 W/m2
16:47 24.3 °C 1.2 °C 1011.7 hPa WSW 11.1 km/h 14.5 km/h 22% 0 mm 37.0 W/m2
17:01 23.5 °C 1.8 °C 1011.7 hPa WSW 11.1 km/h 16.1 km/h 24% 0 mm 12.0 W/m2
17:09 22.9 °C 1.3 °C 1012.1 hPa WSW 13 km/h 14.5 km/h 24% 0 mm 0.0 W/m2
17:14 22.8 °C 1.7 °C 1012.1 hPa WSW 9.7 km/h 11.3 km/h 25% 0 mm 0.0 W/m2
17:19 22.5 °C 1.5 °C 1012.1 hPa WSW 7.9 km/h 9.7 km/h 25% 0 mm 0.0 W/m2
20:00 18.2 °C 1.7 °C 1014.4 hPa WSW 3.2 km/h 9.7 km/h 33% 0 mm 0.0 W/m2
20:10 18 °C 1.9 °C 1014.4 hPa Calm     34% 0 mm 0.0 W/m2
20:33 17.8 °C 2.1 °C 1014.1 hPa Calm     35% 0 mm 0.0 W/m2
20:49 17 °C 1.4 °C 1014.4 hPa Calm     35% 0 mm 0.0 W/m2
21:01 16.1 °C 2.1 °C 1014.4 hPa Calm     39% 0 mm 0.0 W/m2
21:11 15.5 °C 1.6 °C 1014.4 hPa Calm     39% 0 mm 0.0 W/m2
21:20 14.9 °C 1.4 °C 1014.4 hPa Calm     40% 0 mm 0.0 W/m2
21:26 14.6 °C 1.1 °C 1014.4 hPa Calm     40% 0 mm 0.0 W/m2
21:39 14.3 °C 0.9 °C 1014.8 hPa Calm     40% 0 mm 0.0 W/m2
21:50 14.2 °C 0.8 °C 1015.1 hPa Calm     40% 0 mm 0.0 W/m2
Canyon Roadhouse, Fishriver Canyon, Namibia
Compliments of Weather Underground - 2.25 mb